createdAt,value
2019-02-12T00:00:17.029Z,5.40
2019-02-12T00:02:49.510Z,6.03
2019-02-12T00:05:20.494Z,3.77
2019-02-12T00:07:52.449Z,6.83
2019-02-12T00:10:23.694Z,3.33
2019-02-12T00:12:55.159Z,4.85
2019-02-12T00:15:26.478Z,4.58
2019-02-12T00:17:58.168Z,8.38
2019-02-12T00:20:29.865Z,4.60
2019-02-12T00:23:01.909Z,5.45
2019-02-12T00:25:33.181Z,6.25
2019-02-12T00:28:04.263Z,3.40
2019-02-12T00:30:35.683Z,4.67
2019-02-12T00:33:07.772Z,4.05
2019-02-12T00:35:39.915Z,7.72
2019-02-12T00:38:11.471Z,3.40
2019-02-12T00:40:42.500Z,3.85
2019-02-12T00:43:13.842Z,5.28
2019-02-12T00:45:45.635Z,4.25
2019-02-12T00:48:18.431Z,4.33
2019-02-12T00:50:50.261Z,5.53
2019-02-12T00:53:21.858Z,8.98
2019-02-12T00:55:53.812Z,7.28
2019-02-12T00:58:25.440Z,3.17
2019-02-12T01:00:56.776Z,3.27
2019-02-12T01:03:28.036Z,6.42
2019-02-12T01:05:59.033Z,4.30
2019-02-12T01:08:30.307Z,3.80
2019-02-12T01:11:01.647Z,5.17
2019-02-12T01:13:34.397Z,4.33
2019-02-12T01:16:06.100Z,3.10
2019-02-12T01:18:37.746Z,6.97
2019-02-12T01:21:09.321Z,3.60
2019-02-12T01:23:41.039Z,3.08
2019-02-12T01:26:12.041Z,3.72
2019-02-12T01:28:43.626Z,4.75
2019-02-12T01:31:15.435Z,4.00
2019-02-12T01:33:46.774Z,1.85
2019-02-12T01:36:18.641Z,3.70
2019-02-12T01:38:49.933Z,7.30
2019-02-12T01:41:20.963Z,4.97
2019-02-12T01:43:53.035Z,1.32
2019-02-12T01:46:25.057Z,3.70
2019-02-12T01:48:56.062Z,6.33
2019-02-12T01:51:34.896Z,3.45
2019-02-12T01:54:01.376Z,3.55
2019-02-12T01:56:32.662Z,3.70
2019-02-12T01:59:04.002Z,4.47
2019-02-12T02:01:35.024Z,3.47
2019-02-12T02:04:06.726Z,3.50
2019-02-12T02:06:38.607Z,4.47
2019-02-12T02:09:10.310Z,7.92
2019-02-12T02:11:41.584Z,4.55
2019-02-12T02:14:13.242Z,4.28
2019-02-12T02:16:44.258Z,3.35
2019-02-12T02:19:15.822Z,4.35
2019-02-12T02:21:47.768Z,5.45
2019-02-12T02:24:19.624Z,5.12
2019-02-12T02:26:50.867Z,3.40
2019-02-12T02:29:22.128Z,5.12
2019-02-12T02:31:53.967Z,4.25
2019-02-12T02:34:25.761Z,5.35
2019-02-12T02:36:57.311Z,3.87
2019-02-12T02:39:28.961Z,4.92
2019-02-12T02:42:00.722Z,5.92
2019-02-12T02:44:32.274Z,4.83
2019-02-12T02:47:04.466Z,3.83
2019-02-12T02:49:35.786Z,2.75
2019-02-12T02:52:07.619Z,4.03
2019-02-12T02:54:39.100Z,4.42
2019-02-12T02:57:10.347Z,4.55
2019-02-12T02:59:41.895Z,4.37
2019-02-12T03:02:13.247Z,4.28
2019-02-12T03:04:44.856Z,2.95
2019-02-12T03:07:16.679Z,6.83
2019-02-12T03:09:48.509Z,4.35
2019-02-12T03:12:20.078Z,5.65
2019-02-12T03:14:51.684Z,5.17
2019-02-12T03:17:23.271Z,6.37
2019-02-12T03:19:54.817Z,4.62
2019-02-12T03:22:26.503Z,5.50
2019-02-12T03:24:58.096Z,4.03
2019-02-12T03:27:29.930Z,4.28
2019-02-12T03:30:01.239Z,6.80
2019-02-12T03:32:33.016Z,5.45
2019-02-12T03:35:05.232Z,4.80
2019-02-12T03:37:38.703Z,4.55
2019-02-12T03:40:11.985Z,6.40
2019-02-12T03:42:43.297Z,7.37
2019-02-12T03:45:14.469Z,8.18
2019-02-12T03:47:46.275Z,5.47
2019-02-12T03:50:17.711Z,6.42
2019-02-12T03:52:49.306Z,8.78
2019-02-12T03:55:20.530Z,7.78
2019-02-12T03:57:53.203Z,8.15
2019-02-12T04:00:25.006Z,7.12
2019-02-12T04:03:05.490Z,9.30
2019-02-12T04:05:38.137Z,5.55
2019-02-12T04:08:10.361Z,10.88
2019-02-12T04:10:42.463Z,10.45
2019-02-12T04:13:14.201Z,10.45
2019-02-12T04:15:46.427Z,7.10
2019-02-12T04:18:17.992Z,9.13
2019-02-12T04:20:49.541Z,4.17
2019-02-12T04:23:20.784Z,5.70
2019-02-12T04:25:52.515Z,3.92
2019-02-12T04:28:24.386Z,4.80
2019-02-12T04:30:55.681Z,4.22
2019-02-12T04:33:27.280Z,7.83
2019-02-12T04:35:58.892Z,11.05
2019-02-12T04:38:30.230Z,8.45
2019-02-12T04:41:01.565Z,6.83
2019-02-12T04:43:33.151Z,9.20
2019-02-12T04:46:04.277Z,5.08
2019-02-12T04:48:35.916Z,6.72
2019-02-12T04:51:08.848Z,5.83
2019-02-12T04:53:40.189Z,2.67
2019-02-12T04:56:11.497Z,4.47
2019-02-12T04:58:43.275Z,4.33
2019-02-12T05:01:15.101Z,6.35
2019-02-12T05:03:46.643Z,6.83
2019-02-12T05:06:17.904Z,6.72
2019-02-12T05:09:26.930Z,4.58
2019-02-12T05:12:01.817Z,6.33
2019-02-12T05:14:33.125Z,5.28
2019-02-12T05:17:05.488Z,7.00
2019-02-12T05:19:37.708Z,4.90
2019-02-12T05:22:09.076Z,5.08
2019-02-12T05:24:40.867Z,3.37
2019-02-12T05:27:13.082Z,3.35
2019-02-12T05:29:44.659Z,2.90
2019-02-12T05:32:16.596Z,5.62
2019-02-12T05:34:48.187Z,7.55
2019-02-12T05:37:20.110Z,5.62
2019-02-12T05:39:51.100Z,9.63
2019-02-12T05:42:22.809Z,5.20
2019-02-12T05:44:54.864Z,6.22
2019-02-12T05:47:26.712Z,8.65
2019-02-12T05:49:58.337Z,6.37
2019-02-12T05:52:30.293Z,4.75
2019-02-12T05:55:01.890Z,5.28
2019-02-12T05:57:33.513Z,4.40
2019-02-12T06:00:06.244Z,3.80
2019-02-12T06:02:37.517Z,5.80
2019-02-12T06:05:08.791Z,7.40
2019-02-12T06:07:40.045Z,5.17
2019-02-12T06:10:12.379Z,5.08
2019-02-12T06:12:44.167Z,3.87
2019-02-12T06:15:15.490Z,4.00
2019-02-12T06:17:47.389Z,5.37
2019-02-12T06:20:19.374Z,5.25
2019-02-12T06:22:50.669Z,4.85
2019-02-12T06:25:22.257Z,4.47
2019-02-12T06:27:54.209Z,5.72
2019-02-12T06:30:25.215Z,6.12
2019-02-12T06:32:57.343Z,4.10
2019-02-12T06:35:28.662Z,7.28
2019-02-12T06:37:59.904Z,3.83
2019-02-12T06:40:31.238Z,5.87
2019-02-12T06:43:03.098Z,3.62
2019-02-12T06:45:34.637Z,6.03
2019-02-12T06:48:06.018Z,7.33
2019-02-12T06:50:37.765Z,5.40
2019-02-12T06:53:12.634Z,7.20
2019-02-12T06:55:43.029Z,5.58
2019-02-12T06:58:14.771Z,8.83
2019-02-12T07:00:46.562Z,4.03
2019-02-12T07:03:21.066Z,2.37
2019-02-12T07:06:36.813Z,3.52
2019-02-12T07:09:49.544Z,4.05
2019-02-12T07:13:16.806Z,4.47
2019-02-12T07:16:15.175Z,4.62
2019-02-12T07:19:25.167Z,2.15
2019-02-12T07:22:14.916Z,5.97
2019-02-12T07:25:34.577Z,0.88
2019-02-12T07:28:50.928Z,5.47
2019-02-12T07:32:15.103Z,3.70
2019-02-12T07:35:17.846Z,4.95
2019-02-12T07:38:32.926Z,7.12
2019-02-12T07:41:36.509Z,4.25
2019-02-12T07:44:58.409Z,7.40
2019-02-12T07:48:09.853Z,7.55
2019-02-12T07:51:28.307Z,5.25
2019-02-12T07:54:20.280Z,4.30
2019-02-12T07:57:25.772Z,4.62
2019-02-12T08:00:48.434Z,2.15
2019-02-12T08:04:30.644Z,6.85
2019-02-12T08:07:40.577Z,7.65
2019-02-12T08:11:02.602Z,3.05
2019-02-12T08:14:26.030Z,3.35
2019-02-12T08:17:25.745Z,5.47
2019-02-12T08:21:05.443Z,6.95
2019-02-12T08:24:29.343Z,8.23
2019-02-12T08:27:59.878Z,4.80
2019-02-12T08:31:17.439Z,9.65
2019-02-12T08:34:54.909Z,4.80
2019-02-12T08:38:09.042Z,7.00
2019-02-12T08:41:21.782Z,10.03
2019-02-12T08:44:52.400Z,7.60
2019-02-12T08:48:30.004Z,5.15
2019-02-12T08:51:25.168Z,7.33
2019-02-12T08:54:22.241Z,3.47
2019-02-12T08:57:17.305Z,3.45
2019-02-12T09:00:35.504Z,7.05
2019-02-12T09:04:31.479Z,6.78
2019-02-12T09:07:52.695Z,6.62
2019-02-12T09:11:10.121Z,6.97
2019-02-12T09:14:14.658Z,7.00
2019-02-12T09:17:33.811Z,5.05
2019-02-12T09:20:58.496Z,5.80
2019-02-12T09:24:20.117Z,9.05
2019-02-12T09:27:41.730Z,7.85
2019-02-12T09:30:41.430Z,4.42
2019-02-12T09:34:04.742Z,5.00
2019-02-12T09:37:41.746Z,3.05
2019-02-12T09:40:30.349Z,5.33
2019-02-12T09:43:54.738Z,3.65
2019-02-12T09:47:13.422Z,6.78
2019-02-12T09:51:02.752Z,4.67
2019-02-12T09:54:08.739Z,9.15
2019-02-12T09:57:33.489Z,4.17
2019-02-12T10:00:26.209Z,4.10
2019-02-12T10:03:57.047Z,3.85
2019-02-12T10:07:04.625Z,7.05
2019-02-12T10:10:25.840Z,6.37
2019-02-12T10:13:08.356Z,3.70
2019-02-12T10:16:40.972Z,6.15
2019-02-12T10:19:43.874Z,7.05
2019-02-12T10:23:15.984Z,7.53
2019-02-12T10:25:55.448Z,5.40
2019-02-12T10:29:18.295Z,6.90
2019-02-12T10:31:47.557Z,6.10
2019-02-12T10:34:18.778Z,5.70
2019-02-12T10:36:50.074Z,5.50
2019-02-12T10:39:21.191Z,7.00
2019-02-12T10:41:52.896Z,9.63
2019-02-12T10:44:24.597Z,6.28
2019-02-12T10:46:55.865Z,5.58
2019-02-12T10:49:27.567Z,4.72
2019-02-12T10:51:59.597Z,3.80
2019-02-12T10:54:31.038Z,4.30
2019-02-12T10:57:02.278Z,8.30
2019-02-12T10:59:33.490Z,5.37
2019-02-12T11:02:04.872Z,3.65
2019-02-12T11:04:36.148Z,9.33
2019-02-12T11:07:07.810Z,8.05
2019-02-12T11:09:39.727Z,6.85
2019-02-12T11:12:11.289Z,9.98
2019-02-12T11:14:42.821Z,8.13
2019-02-12T11:17:14.295Z,7.05
2019-02-12T11:19:45.533Z,6.53
2019-02-12T11:22:17.227Z,3.42
2019-02-12T11:24:48.698Z,3.72
2019-02-12T11:27:20.154Z,5.17
2019-02-12T11:29:51.836Z,10.28
2019-02-12T11:32:23.294Z,7.65
2019-02-12T11:34:54.993Z,5.85
2019-02-12T11:37:26.474Z,5.67
2019-02-12T11:39:57.678Z,6.83
2019-02-12T11:42:28.960Z,4.53
2019-02-12T11:45:00.643Z,5.12
2019-02-12T11:47:36.424Z,8.10
2019-02-12T11:50:09.171Z,7.83
2019-02-12T11:52:40.477Z,7.80
2019-02-12T11:55:11.841Z,9.15
2019-02-12T11:57:43.589Z,7.62
2019-02-12T12:00:17.843Z,3.80
2019-02-12T12:02:49.122Z,8.65
2019-02-12T12:05:20.362Z,5.87
2019-02-12T12:07:52.130Z,7.10
2019-02-12T12:10:23.574Z,8.83
2019-02-12T12:12:55.035Z,5.22
2019-02-12T12:15:26.722Z,6.50
2019-02-12T12:17:57.941Z,8.78
2019-02-12T12:20:29.373Z,8.85
2019-02-12T12:23:00.624Z,11.43
2019-02-12T12:25:32.331Z,6.45
2019-02-12T12:28:03.544Z,10.18
2019-02-12T12:30:35.094Z,8.48
2019-02-12T12:33:06.633Z,9.63
2019-02-12T12:35:38.583Z,4.92
2019-02-12T12:38:10.608Z,6.90
2019-02-12T12:40:42.296Z,8.93
2019-02-12T12:43:13.520Z,6.65
2019-02-12T12:45:44.994Z,8.43
2019-02-12T12:48:16.259Z,9.05
2019-02-12T12:50:47.955Z,6.15
2019-02-12T12:53:19.654Z,4.47
2019-02-12T12:55:51.163Z,6.75
2019-02-12T12:58:22.847Z,4.87
2019-02-12T13:00:54.299Z,5.90
2019-02-12T13:03:25.779Z,5.72
2019-02-12T13:05:56.980Z,8.65
2019-02-12T13:08:28.264Z,6.75
2019-02-12T13:10:59.488Z,6.28
2019-02-12T13:13:30.941Z,5.47
2019-02-12T13:16:03.062Z,6.92
2019-02-12T13:18:34.990Z,6.17
2019-02-12T13:21:06.096Z,5.75
2019-02-12T13:23:38.048Z,7.03
2019-02-12T13:26:09.246Z,11.83
2019-02-12T13:28:41.010Z,5.80
2019-02-12T13:31:12.945Z,6.05
2019-02-12T13:33:44.603Z,6.33
2019-02-12T13:36:16.774Z,3.85
2019-02-12T13:38:48.855Z,7.78
2019-02-12T13:41:20.797Z,10.30
2019-02-12T13:43:51.831Z,7.92
2019-02-12T13:46:23.362Z,6.03
2019-02-12T13:48:55.945Z,7.50
2019-02-12T13:51:27.136Z,8.58
2019-02-12T13:53:58.725Z,6.62
2019-02-12T13:56:30.602Z,6.87
2019-02-12T13:59:01.935Z,9.03
2019-02-12T14:01:33.246Z,8.48
2019-02-12T14:04:05.032Z,8.30
2019-02-12T14:06:36.898Z,18.07
2019-02-12T14:09:08.653Z,20.02
2019-02-12T14:11:40.239Z,15.70
2019-02-12T14:14:12.075Z,21.50
2019-02-12T14:16:43.314Z,17.25
2019-02-12T14:19:14.634Z,19.45
2019-02-12T14:21:46.455Z,6.62
2019-02-12T14:24:18.324Z,4.87
2019-02-12T14:26:50.154Z,7.60
2019-02-12T14:29:22.041Z,5.78
2019-02-12T14:31:54.104Z,5.42
2019-02-12T14:34:25.729Z,8.13
2019-02-12T14:36:57.441Z,7.85
2019-02-12T14:39:29.479Z,5.00
2019-02-12T14:42:01.582Z,8.60
2019-02-12T14:44:32.638Z,5.70
2019-02-12T14:47:03.859Z,6.22
2019-02-12T14:49:35.804Z,6.08
2019-02-12T14:52:07.366Z,5.50
2019-02-12T14:54:38.945Z,6.87
2019-02-12T14:57:10.490Z,4.53
2019-02-12T14:59:42.219Z,6.35
2019-02-12T15:02:13.986Z,4.00
2019-02-12T15:04:45.317Z,3.77
2019-02-12T15:07:16.945Z,8.23
2019-02-12T15:09:49.094Z,5.87
2019-02-12T15:12:20.871Z,11.25
2019-02-12T15:14:52.909Z,9.38
2019-02-12T15:17:24.669Z,6.85
2019-02-12T15:19:56.096Z,7.83
2019-02-12T15:22:28.207Z,8.85
2019-02-12T15:24:59.762Z,8.25
2019-02-12T15:27:32.028Z,6.42
2019-02-12T15:30:03.659Z,4.80
2019-02-12T15:32:35.315Z,6.95
2019-02-12T15:35:08.069Z,3.95
2019-02-12T15:37:39.869Z,2.85
2019-02-12T15:40:13.577Z,4.83
2019-02-12T15:42:46.439Z,3.87
2019-02-12T15:45:18.405Z,5.20
2019-02-12T15:47:50.346Z,5.45
2019-02-12T15:50:21.977Z,2.92
2019-02-12T15:52:54.108Z,6.12
2019-02-12T15:55:25.731Z,7.62
2019-02-12T15:57:57.919Z,6.08
2019-02-12T16:00:29.810Z,8.03
2019-02-12T16:03:01.099Z,7.78
2019-02-12T16:05:32.896Z,4.00
2019-02-12T16:08:06.842Z,4.85
2019-02-12T16:10:40.161Z,5.42
2019-02-12T16:13:13.658Z,5.80
2019-02-12T16:15:46.994Z,8.95
2019-02-12T16:18:18.618Z,8.60
2019-02-12T16:20:50.368Z,18.05
2019-02-12T16:23:22.134Z,8.98
2019-02-12T16:25:59.488Z,8.15
2019-02-12T16:28:27.257Z,10.72
2019-02-12T16:30:59.037Z,10.25
2019-02-12T16:33:30.717Z,6.62
2019-02-12T16:36:02.325Z,8.78
2019-02-12T16:38:33.602Z,8.25
2019-02-12T16:41:05.178Z,10.40
2019-02-12T16:43:37.055Z,8.35
2019-02-12T16:46:13.787Z,8.88
2019-02-12T16:48:45.056Z,7.95
2019-02-12T16:51:18.288Z,8.00
2019-02-12T16:53:50.363Z,10.60
2019-02-12T16:56:21.955Z,4.70
2019-02-12T16:58:53.825Z,6.70
2019-02-12T17:01:25.446Z,7.58
2019-02-12T17:03:56.681Z,8.18
2019-02-12T17:06:28.275Z,10.32
2019-02-12T17:08:59.829Z,5.83
2019-02-12T17:11:31.669Z,5.90
2019-02-12T17:14:02.904Z,5.87
2019-02-12T17:16:35.279Z,10.70
2019-02-12T17:19:07.126Z,6.45
2019-02-12T17:21:38.183Z,8.70
2019-02-12T17:24:09.709Z,7.37
2019-02-12T17:26:41.920Z,8.70
2019-02-12T17:29:12.930Z,6.10
2019-02-12T17:31:44.498Z,10.15
2019-02-12T17:34:16.444Z,3.22
2019-02-12T17:36:47.564Z,6.17
2019-02-12T17:39:19.475Z,7.10
2019-02-12T17:41:50.542Z,8.28
2019-02-12T17:44:21.519Z,9.08
2019-02-12T17:46:53.346Z,8.00
2019-02-12T17:49:24.560Z,7.80
2019-02-12T17:51:56.734Z,7.75
2019-02-12T17:54:29.304Z,6.50
2019-02-12T17:57:00.404Z,9.55
2019-02-12T17:59:31.953Z,11.03
2019-02-12T18:02:03.759Z,6.97
2019-02-12T18:04:35.256Z,9.35
2019-02-12T18:07:07.297Z,8.48
2019-02-12T18:09:38.585Z,11.40
2019-02-12T18:12:10.473Z,8.33
2019-02-12T18:14:42.205Z,8.55
2019-02-12T18:17:14.562Z,8.33
2019-02-12T18:19:46.371Z,8.03
2019-02-12T18:22:18.471Z,9.93
2019-02-12T18:24:49.767Z,6.95
2019-02-12T18:27:21.189Z,5.55
2019-02-12T18:29:53.240Z,7.90
2019-02-12T18:32:24.534Z,8.70
2019-02-12T18:34:55.826Z,7.67
2019-02-12T18:37:27.633Z,13.43
2019-02-12T18:40:00.288Z,10.63
2019-02-12T18:42:31.277Z,11.97
2019-02-12T18:45:03.208Z,9.15
2019-02-12T18:47:34.225Z,8.00
2019-02-12T18:50:06.781Z,6.87
2019-02-12T18:52:39.085Z,11.28
2019-02-12T18:55:11.957Z,14.98
2019-02-12T18:57:43.915Z,12.07
2019-02-12T19:00:17.858Z,10.82
2019-02-12T19:02:50.396Z,13.28
2019-02-12T19:05:21.631Z,13.98
2019-02-12T19:07:52.886Z,12.40
2019-02-12T19:10:24.670Z,8.48
2019-02-12T19:12:55.998Z,10.88
2019-02-12T19:15:27.890Z,12.58
2019-02-12T19:18:05.397Z,10.13
2019-02-12T19:20:36.912Z,10.18
2019-02-12T19:23:08.798Z,11.70
2019-02-12T19:25:40.444Z,12.07
2019-02-12T19:28:12.336Z,12.70
2019-02-12T19:30:44.161Z,11.20
2019-02-12T19:33:15.684Z,14.93
2019-02-12T19:35:46.699Z,11.97
2019-02-12T19:38:18.307Z,10.75
2019-02-12T19:40:49.830Z,12.88
2019-02-12T19:43:21.112Z,11.33
2019-02-12T19:45:52.921Z,12.05
2019-02-12T19:48:24.214Z,11.50
2019-02-12T19:50:55.443Z,15.35
2019-02-12T19:53:26.754Z,14.68
2019-02-12T19:55:58.512Z,13.05
2019-02-12T19:58:30.894Z,12.05
2019-02-12T20:01:02.909Z,17.62
2019-02-12T20:03:34.842Z,14.18
2019-02-12T20:06:06.369Z,16.23
2019-02-12T20:08:37.623Z,14.93
2019-02-12T20:11:08.964Z,10.98
2019-02-12T20:13:41.044Z,11.93
2019-02-12T20:16:12.017Z,15.03
2019-02-12T20:18:43.339Z,15.88
2019-02-12T20:21:15.125Z,15.95
2019-02-12T20:23:46.467Z,14.50
2019-02-12T20:26:17.792Z,16.37
2019-02-12T20:28:49.151Z,17.15
2019-02-12T20:31:21.087Z,18.27
2019-02-12T20:33:57.076Z,19.70
2019-02-12T20:36:26.822Z,18.80
2019-02-12T20:38:59.116Z,18.60
2019-02-12T20:41:30.659Z,14.73
2019-02-12T20:44:02.222Z,16.97
2019-02-12T20:46:34.023Z,19.12
2019-02-12T20:49:05.639Z,19.55
2019-02-12T20:51:37.502Z,21.25
2019-02-12T20:54:09.083Z,20.68
2019-02-12T20:56:41.258Z,15.53
2019-02-12T20:59:13.123Z,18.77
2019-02-12T21:01:44.733Z,21.77
2019-02-12T21:04:16.516Z,18.48
2019-02-12T21:06:48.169Z,22.20
2019-02-12T21:09:20.126Z,21.87
2019-02-12T21:11:51.456Z,19.30
2019-02-12T21:14:23.548Z,19.80
2019-02-12T21:16:54.876Z,21.17
2019-02-12T21:19:26.359Z,24.72
2019-02-12T21:21:58.629Z,19.52
2019-02-12T21:24:30.216Z,21.12
2019-02-12T21:27:02.017Z,26.20
2019-02-12T21:29:34.131Z,19.60
2019-02-12T21:32:05.832Z,19.87
2019-02-12T21:34:37.498Z,21.27
2019-02-12T21:37:10.192Z,22.17
2019-02-12T21:39:41.415Z,20.12
2019-02-12T21:42:13.240Z,20.80
2019-02-12T21:44:45.265Z,21.75
2019-02-12T21:47:16.986Z,23.57
2019-02-12T21:49:48.263Z,20.37
2019-02-12T21:52:20.457Z,24.63
2019-02-12T21:54:52.338Z,19.35
2019-02-12T21:57:31.353Z,21.48
2019-02-12T21:59:57.524Z,22.00
2019-02-12T22:02:29.045Z,18.65
2019-02-12T22:05:00.866Z,17.98
2019-02-12T22:07:33.215Z,17.87
2019-02-12T22:10:05.172Z,19.20
2019-02-12T22:12:36.808Z,19.45
2019-02-12T22:15:11.342Z,17.48
2019-02-12T22:17:44.354Z,19.27
2019-02-12T22:20:16.874Z,19.23
2019-02-12T22:22:48.200Z,18.67
2019-02-12T22:25:19.818Z,17.55
2019-02-12T22:27:51.913Z,20.95
2019-02-12T22:30:22.956Z,18.42
2019-02-12T22:32:54.499Z,18.85
2019-02-12T22:35:25.806Z,18.40
2019-02-12T22:37:57.547Z,17.15
2019-02-12T22:40:28.786Z,18.87
2019-02-12T22:43:00.888Z,21.15
2019-02-12T22:45:33.041Z,23.47
2019-02-12T22:48:04.033Z,21.17
2019-02-12T22:50:35.612Z,18.65
2019-02-12T22:53:07.105Z,20.95
2019-02-12T22:55:38.726Z,20.60
2019-02-12T22:58:10.112Z,18.20
2019-02-12T23:01:01.698Z,19.32
2019-02-12T23:03:32.903Z,19.17
2019-02-12T23:06:04.607Z,19.07
2019-02-12T23:08:36.316Z,18.70
2019-02-12T23:11:07.793Z,19.00
2019-02-12T23:13:39.118Z,20.77
2019-02-12T23:16:10.767Z,18.77
2019-02-12T23:18:42.373Z,19.35
2019-02-12T23:21:14.149Z,20.17
2019-02-12T23:23:46.398Z,20.95
2019-02-12T23:26:18.355Z,21.20
2019-02-12T23:28:49.584Z,22.45
2019-02-12T23:31:21.460Z,20.23
2019-02-12T23:33:53.082Z,21.20
2019-02-12T23:36:24.648Z,20.77
2019-02-12T23:38:56.220Z,20.25
2019-02-12T23:41:28.053Z,20.05
2019-02-12T23:43:59.699Z,19.98
2019-02-12T23:46:31.463Z,18.90
2019-02-12T23:49:03.240Z,19.82
2019-02-12T23:51:34.796Z,18.17
2019-02-12T23:54:06.679Z,21.77
2019-02-12T23:56:38.282Z,19.90
2019-02-12T23:59:10.057Z,18.75
